Time;durP1;ratioP1;P1;durP2;ratioP2;P2;SDS_P1;SDS_P2;PMS_P1;PMS_P2;Temp;Humidity;BMP_temperature;BMP_pressure;BME280_temperature;BME280_humidity;BME280_pressure;Samples;Min_cycle;Max_cycle;Signal;HPM_P1;HPM_P2
2021/01/22 00:02:30;;;;;;;89.85;41.48;;;;;;;-5.03;100.00;98978.19;1819903;78;20987;-73
2021/01/22 00:05:04;;;;;;;94.95;42.33;;;;;;;-5.08;100.00;98969.22;1819679;78;21056;-74
2021/01/22 00:07:40;;;;;;;88.52;41.33;;;;;;;-5.13;100.00;98955.83;1750082;82;21007;-74
2021/01/22 00:10:28;;;;;;;79.00;39.13;;;;;;;-5.13;100.00;98972.33;1818334;78;21538;-73
2021/01/22 00:13:06;;;;;;;82.35;37.45;;;;;;;-5.11;100.00;98972.18;1819813;78;21573;-74
2021/01/22 00:15:37;;;;;;;89.37;42.50;;;;;;;-5.18;100.00;98979.37;1814215;78;21291;-74
2021/01/22 00:18:10;;;;;;;105.43;43.08;;;;;;;-5.24;100.00;98991.83;1816916;78;21062;-74
2021/01/22 00:20:44;;;;;;;116.33;51.77;;;;;;;-5.28;100.00;98981.36;1750012;81;20947;-74
2021/01/22 00:23:18;;;;;;;99.40;45.38;;;;;;;-5.31;100.00;98973.04;1818621;78;21030;-75
2021/01/22 00:25:46;;;;;;;88.87;40.03;;;;;;;-5.30;100.00;98963.70;1747434;81;21355;-74
2021/01/22 00:28:29;;;;;;;93.97;36.60;;;;;;;-5.23;100.00;98959.93;1815270;78;20943;-73
2021/01/22 00:31:23;;;;;;;90.35;40.12;;;;;;;-5.18;100.00;98970.21;1746973;81;21807;-75
2021/01/22 00:39:59;;;;;;;90.20;42.60;;;;;;;-5.01;100.00;98955.29;1852307;77;28286;-74
2021/01/22 00:42:44;;;;;;;81.22;38.73;;;;;;;-5.06;100.00;98948.44;1820359;78;20908;-74
2021/01/22 00:45:17;;;;;;;85.95;40.95;;;;;;;-5.10;100.00;98941.89;1820370;78;22185;-74
2021/01/22 00:48:06;;;;;;;;;;;;;;;;;;;;;
2021/01/22 00:50:49;;;;;;;79.37;38.17;;;;;;;-5.12;100.00;98932.58;1820008;77;28166;-73
2021/01/22 00:53:25;;;;;;;97.12;44.10;;;;;;;-5.10;100.00;98930.62;1753458;81;21067;-73
2021/01/22 00:55:58;;;;;;;74.60;36.03;;;;;;;-5.10;100.00;98923.58;1766229;81;21340;-73
2021/01/22 00:58:35;;;;;;;88.95;39.73;;;;;;;-5.17;100.00;98920.84;1755482;81;20924;-73
2021/01/22 01:01:07;;;;;;;73.02;29.92;;;;;;;-5.18;100.00;98911.84;1735233;81;21082;-73
2021/01/22 01:03:45;;;;;;;78.52;36.20;;;;;;;-5.23;100.00;98911.53;1755516;81;21007;-74
2021/01/22 01:06:13;;;;;;;84.40;38.95;;;;;;;-5.24;100.00;98911.22;1739330;81;21003;-73
2021/01/22 01:08:45;;;;;;;79.55;38.80;;;;;;;-5.26;100.00;98910.06;1766065;81;21416;-73
2021/01/22 01:11:23;;;;;;;89.30;40.20;;;;;;;-5.23;100.00;98908.91;1762551;81;21509;-73
2021/01/22 01:14:15;;;;;;;81.37;37.48;;;;;;;-5.23;100.00;98904.48;1756214;81;21034;-75
2021/01/22 01:16:46;;;;;;;65.85;31.87;;;;;;;-5.20;100.00;98894.17;1766905;81;21002;-74
2021/01/22 01:19:19;;;;;;;87.35;36.50;;;;;;;-5.20;100.00;98900.22;1757078;81;21057;-74
2021/01/22 01:21:58;;;;;;;73.10;34.55;;;;;;;-5.22;100.00;98895.67;1762911;81;20994;-74
2021/01/22 01:24:30;;;;;;;87.12;41.05;;;;;;;-5.26;100.00;98896.17;1766047;81;21176;-74
2021/01/22 01:27:02;;;;;;;92.45;45.35;;;;;;;-5.30;100.00;98896.98;1755968;81;21655;-74
2021/01/22 01:29:36;;;;;;;72.40;35.35;;;;;;;-5.30;100.00;98901.41;1766086;81;21125;-74
2021/01/22 01:32:08;;;;;;;90.75;39.75;;;;;;;-5.34;100.00;98889.64;1755057;81;21490;-74
2021/01/22 01:34:47;;;;;;;;;;;;;;;;;;;;;
2021/01/22 01:37:08;;;;;;;79.53;35.48;;;;;;;-5.21;100.00;98897.80;1753649;81;21099;-74
2021/01/22 01:39:42;;;;;;;82.70;36.83;;;;;;;-5.22;100.00;98894.36;1762712;81;21486;-74
2021/01/22 01:42:13;;;;;;;89.40;46.37;;;;;;;-5.18;100.00;98889.59;1756412;81;20983;-74
2021/01/22 01:44:47;;;;;;;91.57;40.00;;;;;;;-5.14;100.00;98880.91;1766123;81;21033;-74
2021/01/22 01:47:28;;;;;;;78.72;37.80;;;;;;;-5.11;100.00;98868.81;1755663;81;22364;-74
2021/01/22 01:49:59;;;;;;;90.57;46.05;;;;;;;-5.01;100.00;98858.45;1743895;81;21070;-74
2021/01/22 01:52:31;;;;;;;92.22;44.48;;;;;;;-4.85;100.00;98872.44;1761756;81;21663;-74
2021/01/22 01:54:59;;;;;;;72.85;36.00;;;;;;;-4.76;100.00;98863.56;1761998;81;21163;-73
2021/01/22 01:57:30;;;;;;;93.10;41.80;;;;;;;-4.68;100.00;98861.39;1761801;81;21041;-74
2021/01/22 01:59:59;;;;;;;80.97;40.73;;;;;;;-4.62;100.00;98864.64;1758700;81;21508;-74
2021/01/22 02:02:29;;;;;;;90.10;40.78;;;;;;;-4.61;100.00;98870.19;1734285;81;20923;-73
2021/01/22 02:04:58;;;;;;;96.70;47.67;;;;;;;-4.62;100.00;98860.22;1761249;81;20930;-74
2021/01/22 02:07:26;;;;;;;;;;;;;;;-4.61;100.00;98865.76;1760525;81;21484;-73
2021/01/22 02:09:54;;;;;;;87.08;41.98;;;;;;;-4.56;100.00;98858.70;1761304;81;20151;-73
2021/01/22 02:12:22;;;;;;;79.35;38.33;;;;;;;-4.52;100.00;98854.75;1761303;81;21192;-74
2021/01/22 02:14:56;;;;;;;84.25;38.55;;;;;;;-4.47;100.00;98854.23;1761274;81;20971;-73
2021/01/22 02:17:23;;;;;;;80.90;38.02;;;;;;;-4.42;100.00;98853.22;1734344;81;20954;-73
2021/01/22 02:20:34;;;;;;;75.72;38.15;;;;;;;-4.39;100.00;98862.03;1761378;81;20994;-73
2021/01/22 02:23:05;;;;;;;84.20;43.48;;;;;;;-4.40;100.00;98855.98;1733649;81;21013;-73
2021/01/22 02:25:41;;;;;;;82.35;39.05;;;;;;;-4.38;100.00;98858.44;1760701;81;21234;-73
2021/01/22 02:28:13;;;;;;;92.15;44.73;;;;;;;-4.36;100.00;98855.96;1761249;81;20947;-73
2021/01/22 02:30:46;;;;;;;90.57;41.58;;;;;;;-4.34;100.00;98853.95;1761224;81;20879;-74
2021/01/22 02:33:17;;;;;;;79.58;40.03;;;;;;;-4.31;100.00;98849.70;1761204;81;20915;-73
2021/01/22 02:35:52;;;;;;;68.25;32.35;;;;;;;-4.26;100.00;98858.81;1741738;81;21037;-73
2021/01/22 02:38:20;;;;;;;88.87;44.67;;;;;;;-4.23;100.00;98863.23;1730909;83;21168;-75
2021/01/22 02:40:48;;;;;;;113.47;52.78;;;;;;;-4.22;100.00;98867.47;1731171;83;21562;-74
2021/01/22 02:43:17;;;;;;;86.00;42.83;;;;;;;-4.22;100.00;98853.05;1730907;83;21065;-73
2021/01/22 02:45:47;;;;;;;67.80;35.03;;;;;;;-4.19;100.00;98857.97;1731098;83;21460;-74
2021/01/22 02:48:17;;;;;;;82.30;39.90;;;;;;;-4.18;100.00;98852.22;1730983;83;20942;-74
2021/01/22 02:50:47;;;;;;;83.72;40.10;;;;;;;-4.17;100.00;98853.34;1741459;80;21355;-74
2021/01/22 02:53:15;;;;;;;70.00;34.60;;;;;;;-4.14;100.00;98848.23;1716888;83;20938;-74
2021/01/22 02:55:44;;;;;;;87.62;39.67;;;;;;;-4.10;100.00;98852.95;1745428;82;20977;-74
2021/01/22 02:58:46;;;;;;;74.35;35.35;;;;;;;-4.07;100.00;98842.61;1745233;82;20921;-74
2021/01/22 03:01:18;;;;;;;77.80;36.08;;;;;;;-4.04;100.00;98848.84;1721780;82;25417;-74
2021/01/22 03:03:58;;;;;;;77.30;38.83;;;;;;;-4.01;100.00;98856.84;1745062;82;21200;-74
2021/01/22 03:06:35;;;;;;;67.62;32.60;;;;;;;-4.00;100.00;98854.52;1733611;82;21519;-74
2021/01/22 03:09:07;;;;;;;61.30;33.02;;;;;;;-3.97;100.00;98859.41;1744332;82;21062;-74
2021/01/22 03:11:39;;;;;;;57.15;27.27;;;;;;;-3.96;100.00;98854.00;1744917;81;21599;-74
2021/01/22 03:14:10;;;;;;;62.05;30.10;;;;;;;-3.94;100.00;98858.58;1745173;82;20925;-74
2021/01/22 03:16:38;;;;;;;76.62;39.15;;;;;;;-3.92;100.00;98847.89;1745156;82;21306;-74
2021/01/22 03:19:08;;;;;;;84.90;43.33;;;;;;;-3.90;100.00;98848.53;1745240;82;21000;-74
2021/01/22 03:21:36;;;;;;;67.62;33.90;;;;;;;-3.87;100.00;98853.44;1745082;82;20890;-74
2021/01/22 03:24:07;;;;;;;82.62;41.28;;;;;;;-3.85;100.00;98843.56;1745103;82;20930;-73
2021/01/22 03:26:38;;;;;;;63.58;32.30;;;;;;;-3.83;100.00;98842.89;1745167;82;21106;-73
2021/01/22 03:29:08;;;;;;;76.07;37.75;;;;;;;-3.80;100.00;98836.48;1745083;82;21203;-73
2021/01/22 03:31:37;;;;;;;71.55;33.18;;;;;;;-3.81;100.00;98847.47;1745004;82;20933;-73
2021/01/22 03:34:05;;;;;;;49.13;25.70;;;;;;;-3.82;100.00;98843.23;1693718;83;20997;-74
2021/01/22 03:36:33;;;;;;;;;;;;;;;-3.84;100.00;98836.03;1747730;82;21595;-73
2021/01/22 03:39:03;;;;;;;72.53;35.78;;;;;;;-3.83;100.00;98832.91;1745107;82;20154;-74
2021/01/22 03:41:31;;;;;;;;;;;;;;;-3.83;100.00;98836.34;1748076;82;21192;-73
2021/01/22 03:44:02;;;;;;;81.82;40.73;;;;;;;-3.81;100.00;98834.36;1746549;82;20130;-74
2021/01/22 03:46:32;;;;;;;85.00;38.83;;;;;;;-3.78;100.00;98838.43;1744959;82;21052;-73
2021/01/22 03:49:03;;;;;;;67.65;37.98;;;;;;;-3.76;100.00;98828.08;1722016;83;21066;-73
2021/01/22 03:51:31;;;;;;;68.97;34.25;;;;;;;-3.73;100.00;98840.83;1753241;81;21629;-73
2021/01/22 03:53:59;;;;;;;66.82;33.95;;;;;;;-3.72;100.00;98840.36;1754036;81;21638;-73
2021/01/22 03:56:28;;;;;;;76.60;40.88;;;;;;;-3.70;100.00;98838.34;1753900;81;20964;-74
2021/01/22 03:58:56;;;;;;;69.50;39.23;;;;;;;-3.69;100.00;98842.11;1753963;81;20921;-73
2021/01/22 04:01:25;;;;;;;71.92;36.05;;;;;;;-3.66;100.00;98842.24;1728334;81;21097;-73
2021/01/22 04:03:53;;;;;;;76.15;40.43;;;;;;;-3.65;100.00;98832.06;1704826;81;21015;-74
2021/01/22 04:06:21;;;;;;;;;;;;;;;-3.61;100.00;98840.40;1756513;81;21436;-73
2021/01/22 04:08:51;;;;;;;74.92;37.35;;;;;;;-3.59;100.00;98842.34;1753913;81;20298;-73
2021/01/22 04:11:19;;;;;;;72.27;36.40;;;;;;;-3.59;100.00;98840.53;1735129;82;21459;-73
2021/01/22 04:13:48;;;;;;;89.80;43.02;;;;;;;-3.57;100.00;98842.98;1735142;82;20922;-73
2021/01/22 04:16:17;;;;;;;103.42;54.18;;;;;;;-3.54;100.00;98847.87;1735071;82;20865;-73
2021/01/22 04:18:45;;;;;;;;;;;;;;;-3.53;100.00;98852.95;1737710;82;22152;-74
2021/01/22 04:21:14;;;;;;;69.87;38.98;;;;;;;-3.51;100.00;98851.44;1735027;82;20139;-73
2021/01/22 04:23:42;;;;;;;75.22;40.40;;;;;;;-3.52;100.00;98846.69;1708207;82;21004;-73
2021/01/22 04:26:10;;;;;;;87.42;44.03;;;;;;;-3.49;100.00;98852.88;1708346;82;21625;-73
2021/01/22 04:28:40;;;;;;;67.60;33.98;;;;;;;-3.47;100.00;98854.02;1735145;82;20901;-74
2021/01/22 04:31:08;;;;;;;76.15;40.10;;;;;;;-3.43;100.00;98857.89;1708292;82;21143;-73
2021/01/22 04:33:37;;;;;;;81.95;41.30;;;;;;;-3.41;100.00;98849.86;1735334;82;20925;-73
2021/01/22 04:36:07;;;;;;;74.27;40.63;;;;;;;-3.38;100.00;98847.70;1735096;82;20913;-73
2021/01/22 04:38:36;;;;;;;73.12;37.48;;;;;;;-3.35;100.00;98847.84;1735034;82;21202;-73
2021/01/22 04:41:05;;;;;;;81.72;40.38;;;;;;;-3.31;100.00;98835.96;1735102;82;20894;-73
2021/01/22 04:43:38;;;;;;;79.58;42.40;;;;;;;-3.27;100.00;98841.17;1735106;82;21558;-73
2021/01/22 04:46:05;;;;;;;75.22;37.65;;;;;;;-3.26;100.00;98845.41;1735137;82;20921;-73
2021/01/22 04:48:33;;;;;;;67.92;36.38;;;;;;;-3.26;100.00;98843.63;1708476;82;20980;-73
2021/01/22 04:51:02;;;;;;;77.22;41.63;;;;;;;-3.26;100.00;98842.31;1728945;82;21211;-73
2021/01/22 04:53:31;;;;;;;77.67;42.65;;;;;;;-3.24;100.00;98836.86;1725844;83;21622;-73
2021/01/22 04:56:00;;;;;;;82.02;42.93;;;;;;;-3.22;100.00;98840.13;1725820;83;21475;-73
2021/01/22 04:58:29;;;;;;;72.30;38.83;;;;;;;-3.20;100.00;98834.70;1725613;83;20898;-73
2021/01/22 05:00:57;;;;;;;74.30;38.85;;;;;;;-3.17;100.00;98825.95;1725857;83;20878;-73
2021/01/22 05:03:29;;;;;;;75.32;41.25;;;;;;;-3.11;100.00;98828.33;1725689;83;20889;-73
2021/01/22 05:05:59;;;;;;;75.37;38.15;;;;;;;-3.06;100.00;98828.13;1725670;83;21045;-73
2021/01/22 05:08:28;;;;;;;79.97;40.45;;;;;;;-3.03;100.00;98826.44;1725667;82;21205;-74
2021/01/22 05:10:57;;;;;;;70.25;37.67;;;;;;;-2.99;100.00;98830.00;1738655;82;21060;-73
2021/01/22 05:13:28;;;;;;;76.53;41.08;;;;;;;-2.97;100.00;98828.81;1753833;81;21466;-73
2021/01/22 05:16:16;;;;;;;66.80;38.30;;;;;;;-2.96;100.00;98822.58;1738467;82;20941;-73
2021/01/22 05:18:46;;;;;;;73.47;39.10;;;;;;;-2.96;100.00;98825.20;1753862;81;21058;-73
2021/01/22 05:21:14;;;;;;;;;;;;;;;-2.95;100.00;98826.02;1741058;82;21159;-73
2021/01/22 05:23:49;;;;;;;88.42;43.38;;;;;;;-2.94;100.00;98820.59;1738963;82;20159;-73
2021/01/22 05:26:25;;;;;;;82.30;42.10;;;;;;;-2.90;100.00;98819.70;1753867;81;20920;-74
2021/01/22 05:28:53;;;;;;;90.65;46.58;;;;;;;-2.88;100.00;98817.20;1754026;81;22630;-74
2021/01/22 05:31:22;;;;;;;73.97;39.90;;;;;;;-2.86;100.00;98813.91;1753826;81;21121;-74
2021/01/22 05:33:58;;;;;;;76.85;41.55;;;;;;;-2.82;100.00;98820.90;1705058;81;21151;-74
2021/01/22 05:36:30;;;;;;;79.92;42.85;;;;;;;-2.77;100.00;98806.70;1754102;81;21505;-74
2021/01/22 05:39:01;;;;;;;79.67;46.48;;;;;;;-2.72;100.00;98817.97;1753883;81;21538;-74
2021/01/22 05:41:30;;;;;;;80.07;38.20;;;;;;;-2.68;100.00;98817.92;1754007;81;21145;-74
2021/01/22 05:43:58;;;;;;;78.95;40.67;;;;;;;-2.65;100.00;98814.41;1754201;81;20899;-74
2021/01/22 05:46:28;;;;;;;75.80;39.80;;;;;;;-2.57;100.00;98817.92;1754124;81;21193;-74
2021/01/22 05:49:12;;;;;;;81.87;44.40;;;;;;;-2.57;100.00;98817.92;1753907;81;20953;-74
2021/01/22 05:51:43;;;;;;;80.67;42.95;;;;;;;-2.52;100.00;98822.95;1746754;81;21541;-73
2021/01/22 05:54:33;;;;;;;76.57;42.50;;;;;;;-2.48;100.00;98821.55;1744895;82;25142;-74
2021/01/22 05:57:02;;;;;;;65.42;36.08;;;;;;;-2.44;100.00;98824.12;1745148;82;21111;-73
2021/01/22 05:59:30;;;;;;;71.37;42.20;;;;;;;-2.38;100.00;98821.24;1745279;82;21635;-73
2021/01/22 06:01:59;;;;;;;74.50;38.65;;;;;;;-2.33;100.00;98823.31;1745302;82;21476;-73
2021/01/22 06:04:30;;;;;;;72.50;39.85;;;;;;;-2.29;100.00;98821.95;1722195;83;21501;-73
2021/01/22 06:07:00;;;;;;;79.53;43.40;;;;;;;-2.27;100.00;98823.38;1745016;80;20937;-73
2021/01/22 06:09:32;;;;;;;74.62;42.48;;;;;;;-2.23;100.00;98822.02;1745085;82;21057;-73
2021/01/22 06:12:02;;;;;;;79.92;40.88;;;;;;;-2.18;100.00;98826.20;1745040;82;22386;-73
2021/01/22 06:14:34;;;;;;;67.05;37.17;;;;;;;-2.13;100.00;98815.59;1744954;82;21004;-72
2021/01/22 06:17:05;;;;;;;73.15;41.90;;;;;;;-2.10;100.00;98814.73;1745229;82;21016;-72
2021/01/22 06:19:45;;;;;;;74.92;40.03;;;;;;;-2.06;100.00;98820.41;1742045;82;21202;-72
2021/01/22 06:22:17;;;;;;;82.70;39.15;;;;;;;-2.04;100.00;98816.58;1742613;82;21147;-72
2021/01/22 06:24:49;;;;;;;68.45;38.28;;;;;;;-2.01;100.00;98813.59;1720576;83;21459;-75
2021/01/22 06:27:32;;;;;;;63.28;34.10;;;;;;;-1.96;100.00;98818.26;1742127;81;21100;-73
2021/01/22 06:30:01;;;;;;;80.22;42.73;;;;;;;-1.91;100.00;98822.47;1742248;81;21179;-72
2021/01/22 06:32:32;;;;;;;73.45;42.70;;;;;;;-1.88;100.00;98818.64;1714652;82;21614;-72
2021/01/22 06:35:12;;;;;;;74.10;38.80;;;;;;;-1.85;100.00;98823.52;1717970;83;21850;-72
2021/01/22 06:37:45;;;;;;;67.47;37.93;;;;;;;-1.82;100.00;98827.08;1741071;81;21353;-73
2021/01/22 06:43:30;;;;;;;68.00;36.83;;;;;;;-1.78;100.00;98818.61;1849552;77;28417;-73
2021/01/22 06:46:15;;;;;;;58.58;31.33;;;;;;;-1.79;100.00;98814.84;1818354;78;20979;-73
2021/01/22 06:49:17;;;;;;;73.10;38.53;;;;;;;-1.74;100.00;98825.13;1748295;82;21207;-73
2021/01/22 06:51:52;;;;;;;62.85;33.83;;;;;;;-1.70;100.00;98812.89;1799470;78;21148;-73
2021/01/22 06:54:29;;;;;;;59.73;32.08;;;;;;;-1.64;100.00;98816.05;1757845;78;21553;-74
2021/01/22 07:04:08;;;;;;;66.10;37.70;;;;;;;-1.63;100.00;98817.19;1816180;79;21146;-72
2021/01/22 07:06:48;;;;;;;59.50;34.23;;;;;;;-1.58;100.00;98815.30;1811914;79;21495;-72
2021/01/22 07:10:09;;;;;;;;;;;;;;;;;;;;;
2021/01/22 07:35:22;;;;;;;68.57;37.40;;;;;;;-1.22;100.00;98809.02;1850905;77;28599;-71
2021/01/22 07:38:13;;;;;;;82.78;41.30;;;;;;;-1.19;100.00;98814.69;1818849;78;20935;-73
2021/01/22 07:40:53;;;;;;;114.25;55.03;;;;;;;-1.13;100.00;98813.09;1813667;78;21207;-73
2021/01/22 07:43:40;;;;;;;82.47;41.85;;;;;;;-1.08;100.00;98815.94;1819038;78;21018;-72
2021/01/22 07:46:11;;;;;;;79.37;39.40;;;;;;;-1.02;100.00;98815.69;1818759;78;21007;-72
2021/01/22 07:49:06;;;;;;;62.88;32.58;;;;;;;-0.99;100.00;98821.87;1746293;82;20952;-73
2021/01/22 07:51:38;;;;;;;78.45;44.48;;;;;;;-0.93;100.00;98813.16;1819052;78;21042;-73
2021/01/22 07:54:08;;;;;;;58.15;32.73;;;;;;;-0.84;100.00;98813.30;1749345;82;21674;-73
2021/01/22 07:56:40;;;;;;;76.65;41.10;;;;;;;-0.77;100.00;98812.81;1819355;78;21551;-72
2021/01/22 07:59:13;;;;;;;66.72;37.17;;;;;;;-0.71;100.00;98822.58;1749168;82;20999;-74
2021/01/22 08:01:55;;;;;;;67.60;39.05;;;;;;;-0.67;100.00;98815.88;1819208;78;21070;-73
2021/01/22 08:04:27;;;;;;;69.37;41.13;;;;;;;-0.60;100.00;98811.14;1786383;78;21186;-73
2021/01/22 08:07:04;;;;;;;88.70;48.30;;;;;;;-0.55;100.00;98813.48;1816231;78;21003;-73
2021/01/22 08:09:32;;;;;;;80.53;45.65;;;;;;;-0.48;100.00;98820.90;1749293;82;28781;-72
2021/01/22 08:12:11;;;;;;;69.92;37.28;;;;;;;-0.37;100.00;98811.58;1819354;78;21499;-72
2021/01/22 08:14:39;;;;;;;54.38;31.12;;;;;;;-0.34;100.00;98815.63;1748858;82;21093;-71
2021/01/22 08:17:11;;;;;;;60.52;36.38;;;;;;;-0.31;100.00;98814.73;1819032;78;21102;-73
2021/01/22 08:19:42;;;;;;;64.90;36.95;;;;;;;-0.28;100.00;98821.44;1788104;78;21656;-73
2021/01/22 08:22:18;;;;;;;63.15;37.95;;;;;;;-0.24;100.00;98816.88;1749394;82;21565;-72
2021/01/22 08:24:50;;;;;;;66.60;38.73;;;;;;;-0.21;100.00;98822.26;1818974;78;21157;-71
2021/01/22 08:27:27;;;;;;;70.22;36.88;;;;;;;-0.15;100.00;98823.27;1819036;78;21058;-71
2021/01/22 08:30:16;;;;;;;;;;;;;;;;;;;;;
2021/01/22 08:32:54;;;;;;;60.92;36.45;;;;;;;-0.10;100.00;98812.91;1818378;78;20999;-71
2021/01/22 08:35:26;;;;;;;60.03;33.90;;;;;;;-0.12;100.00;98818.41;1823844;78;21077;-73
2021/01/22 08:37:55;;;;;;;77.40;39.78;;;;;;;-0.09;100.00;98810.60;1754175;81;21049;-73
2021/01/22 08:40:41;;;;;;;84.20;40.88;;;;;;;-0.03;100.00;98819.01;1726478;81;21129;-72
2021/01/22 08:43:12;;;;;;;64.12;36.65;;;;;;;0.02;100.00;98815.25;1754471;81;21641;-73
2021/01/22 08:46:06;;;;;;;60.28;34.78;;;;;;;0.09;100.00;98810.78;1753022;81;21381;-73
2021/01/22 08:48:41;;;;;;;77.50;40.25;;;;;;;0.18;100.00;98808.25;1754247;81;21062;-73
2021/01/22 08:51:39;;;;;;;64.72;37.48;;;;;;;0.28;100.00;98810.47;1749658;81;21581;-72
2021/01/22 08:54:12;;;;;;;64.97;37.78;;;;;;;0.44;100.00;98810.53;1723650;83;21153;-73
2021/01/22 08:56:41;;;;;;;61.58;35.80;;;;;;;0.56;100.00;98804.11;1736925;82;21172;-73
2021/01/22 08:59:13;;;;;;;69.05;36.68;;;;;;;0.66;100.00;98802.36;1753784;81;21275;-73
2021/01/22 09:01:53;;;;;;;57.43;33.67;;;;;;;0.74;100.00;98802.16;1754099;81;21259;-72
2021/01/22 09:04:34;;;;;;;68.65;39.33;;;;;;;0.79;100.00;98799.70;1753835;81;21356;-72
2021/01/22 09:07:19;;;;;;;101.05;48.70;;;;;;;0.84;100.00;98798.56;1753999;81;21195;-72
2021/01/22 09:09:49;;;;;;;118.75;57.30;;;;;;;0.91;100.00;98795.87;1753953;81;21192;-73
2021/01/22 09:12:26;;;;;;;129.40;59.73;;;;;;;1.09;100.00;98797.84;1752772;81;21370;-70
2021/01/22 09:15:02;;;;;;;120.53;57.93;;;;;;;1.33;100.00;98797.63;1750771;81;21153;-73
2021/01/22 09:17:50;;;;;;;104.92;54.42;;;;;;;1.64;100.00;98791.51;1750941;81;21121;-72
2021/01/22 09:20:26;;;;;;;92.33;47.83;;;;;;;2.10;100.00;98791.14;1749646;81;21180;-72
2021/01/22 09:22:57;;;;;;;83.00;45.10;;;;;;;2.39;100.00;98788.84;1754339;81;21577;-72
2021/01/22 09:36:07;;;;;;;70.90;38.90;;;;;;;2.48;100.00;98782.76;1787610;80;23228;-72
2021/01/22 09:38:37;;;;;;;80.87;45.58;;;;;;;2.52;100.00;98789.22;1791711;80;21591;-71
2021/01/22 09:41:05;;;;;;;81.10;45.60;;;;;;;2.59;100.00;98784.66;1763492;81;22007;-74
2021/01/22 09:43:56;;;;;;;82.40;41.20;;;;;;;2.60;100.00;98783.64;1764019;81;21777;-72
2021/01/22 09:46:24;;;;;;;78.12;44.55;;;;;;;2.59;100.00;98785.98;1735227;82;21063;-73
2021/01/22 09:48:58;;;;;;;77.35;42.65;;;;;;;2.62;100.00;98779.44;1735204;82;21009;-72
2021/01/22 09:51:27;;;;;;;71.60;41.90;;;;;;;2.61;100.00;98780.48;1735255;82;21144;-72
2021/01/22 09:53:56;;;;;;;69.37;39.30;;;;;;;2.63;100.00;98777.09;1710891;82;21436;-73
2021/01/22 09:56:29;;;;;;;63.70;39.42;;;;;;;2.64;100.00;98771.55;1735367;82;21665;-72
2021/01/22 09:59:08;;;;;;;66.02;41.02;;;;;;;2.76;100.00;98768.45;1735152;82;21005;-72
2021/01/22 10:01:37;;;;;;;60.03;37.75;;;;;;;2.88;100.00;98765.87;1734808;82;21383;-72
2021/01/22 10:04:07;;;;;;;58.80;38.63;;;;;;;3.09;100.00;98754.00;1735317;82;21144;-72
2021/01/22 10:06:36;;;;;;;60.17;37.88;;;;;;;3.30;100.00;98754.52;1735289;82;21214;-71
2021/01/22 10:09:16;;;;;;;63.10;38.80;;;;;;;3.80;100.00;98753.67;1734836;82;21195;-72
2021/01/22 10:11:52;;;;;;;66.55;40.50;;;;;;;4.69;100.00;98748.70;1735776;82;21135;-72
2021/01/22 10:14:20;;;;;;;73.42;42.75;;;;;;;4.95;100.00;98756.67;1726332;82;20895;-72
2021/01/22 10:16:48;;;;;;;74.95;43.08;;;;;;;4.81;100.00;98752.14;1716632;83;21623;-73
2021/01/22 10:19:17;;;;;;;80.45;45.70;;;;;;;4.72;100.00;98749.03;1718294;83;21175;-71
2021/01/22 10:21:48;;;;;;;76.00;42.55;;;;;;;4.52;100.00;98745.96;1716776;83;21037;-72
2021/01/22 10:24:18;;;;;;;63.87;38.53;;;;;;;4.43;100.00;98748.16;1716694;83;21011;-72
2021/01/22 10:26:47;;;;;;;53.33;34.40;;;;;;;4.32;100.00;98747.67;1716384;83;20975;-72
2021/01/22 10:29:17;;;;;;;49.18;31.23;;;;;;;4.33;100.00;98739.97;1716436;83;21014;-72
2021/01/22 10:31:48;;;;;;;49.50;31.68;;;;;;;4.50;100.00;98744.86;1716581;83;21442;-70
2021/01/22 10:34:16;;;;;;;52.80;30.77;;;;;;;4.68;100.00;98739.12;1716012;83;21193;-71
2021/01/22 10:36:45;;;;;;;44.90;29.92;;;;;;;4.70;100.00;98735.69;1716087;83;21204;-70
2021/01/22 10:39:14;;;;;;;43.02;29.20;;;;;;;4.73;100.00;98737.89;1693778;83;21216;-71
2021/01/22 10:41:45;;;;;;;42.13;27.20;;;;;;;4.76;100.00;98728.64;1716094;83;21057;-72
2021/01/22 10:44:14;;;;;;;47.35;29.80;;;;;;;4.77;100.00;98721.74;1715748;83;21438;-70
2021/01/22 10:46:47;;;;;;;61.60;31.02;;;;;;;4.84;100.00;98720.28;1711807;83;21118;-71
2021/01/22 10:49:18;;;;;;;54.95;31.68;;;;;;;4.88;100.00;98720.91;1711474;83;21173;-71
2021/01/22 10:51:46;;;;;;;47.10;30.85;;;;;;;4.88;100.00;98714.26;1710999;83;21592;-70
2021/01/22 10:54:14;;;;;;;;;;;;;;;4.96;100.00;98714.40;1714080;83;21172;-72
2021/01/22 10:56:43;;;;;;;47.70;30.37;;;;;;;4.97;100.00;98711.21;1711450;83;21231;-71
2021/01/22 10:59:18;;;;;;;52.40;32.08;;;;;;;4.98;100.00;98706.19;1713784;83;20943;-71
2021/01/22 11:01:55;;;;;;;48.75;29.63;;;;;;;5.03;100.00;98707.61;1713631;83;21161;-70
2021/01/22 11:04:24;;;;;;;58.15;32.48;;;;;;;5.06;100.00;98694.63;1713640;83;21165;-71
2021/01/22 11:06:53;;;;;;;54.73;33.83;;;;;;;5.01;100.00;98695.88;1714219;83;21046;-70
2021/01/22 11:09:21;;;;;;;49.42;32.42;;;;;;;5.06;100.00;98684.52;1713824;83;21382;-71
2021/01/22 11:11:50;;;;;;;44.63;28.92;;;;;;;5.18;100.00;98683.94;1714364;83;21193;-72
2021/01/22 11:14:19;;;;;;;40.52;26.68;;;;;;;5.50;100.00;98688.20;1713879;83;21204;-72
2021/01/22 11:16:48;;;;;;;;;;;;;;;5.82;98.72;98684.96;1716425;83;21169;-72
2021/01/22 11:19:17;;;;;;;38.20;23.83;;;;;;;6.11;97.50;98684.34;1713747;83;20314;-73
2021/01/22 11:21:47;;;;;;;39.42;24.87;;;;;;;6.23;95.06;98675.71;1714216;83;21281;-72
2021/01/22 11:24:20;;;;;;;43.95;26.30;;;;;;;6.25;94.78;98674.65;1714168;83;21687;-72
2021/01/22 11:26:49;;;;;;;34.73;23.07;;;;;;;6.36;94.65;98677.73;1713818;83;21601;-72
2021/01/22 11:29:20;;;;;;;45.58;26.05;;;;;;;6.40;93.62;98671.66;1713646;83;21129;-71
2021/01/22 11:31:48;;;;;;;39.80;26.40;;;;;;;6.53;92.45;98662.48;1713819;83;21153;-72
2021/01/22 11:34:17;;;;;;;38.45;23.40;;;;;;;6.94;90.13;98652.80;1713968;83;22624;-73
2021/01/22 11:36:46;;;;;;;34.35;23.10;;;;;;;7.41;86.96;98658.28;1713015;83;21600;-72
2021/01/22 11:39:14;;;;;;;44.23;27.80;;;;;;;7.45;84.83;98642.57;1713762;83;21145;-72
2021/01/22 11:41:42;;;;;;;41.35;27.15;;;;;;;7.64;85.05;98645.63;1713394;83;26726;-72
2021/01/22 11:44:11;;;;;;;40.95;26.20;;;;;;;7.74;83.27;98649.70;1717128;83;21227;-73
2021/01/22 11:46:41;;;;;;;54.80;32.55;;;;;;;7.89;83.02;98656.50;1708278;82;21204;-72
2021/01/22 11:49:10;;;;;;;83.35;43.30;;;;;;;8.15;79.99;98652.62;1734056;82;21171;-72
2021/01/22 11:51:40;;;;;;;69.85;37.25;;;;;;;7.94;81.05;98641.83;1734308;82;21155;-72
2021/01/22 11:54:11;;;;;;;64.97;39.25;;;;;;;8.19;80.19;98636.88;1734022;82;21198;-72
2021/01/22 11:56:46;;;;;;;50.00;26.02;;;;;;;8.17;80.04;98635.80;1733410;82;21187;-73
2021/01/22 11:59:15;;;;;;;52.23;30.12;;;;;;;7.88;80.64;98625.48;1734398;82;21363;-72
2021/01/22 12:01:43;;;;;;;51.60;28.50;;;;;;;8.03;81.26;98633.31;1733804;82;21147;-71
2021/01/22 12:04:12;;;;;;;41.13;25.72;;;;;;;8.00;80.28;98633.84;1733684;82;21052;-72
2021/01/22 12:06:45;;;;;;;42.80;27.00;;;;;;;8.07;79.60;98634.41;1733596;81;21159;-72
2021/01/22 12:09:16;;;;;;;43.30;24.65;;;;;;;8.27;80.54;98639.84;1734213;82;21143;-73
2021/01/22 12:11:45;;;;;;;43.23;25.90;;;;;;;8.24;78.60;98631.02;1733584;82;21205;-73
2021/01/22 12:14:17;;;;;;;37.48;24.40;;;;;;;8.27;78.86;98633.16;1732958;82;21663;-72
2021/01/22 12:16:46;;;;;;;33.08;21.05;;;;;;;8.12;78.83;98631.22;1703979;82;21638;-73
2021/01/22 12:19:26;;;;;;;39.25;25.05;;;;;;;7.85;79.05;98623.33;1732311;82;21641;-73
2021/01/22 12:21:54;;;;;;;39.80;23.55;;;;;;;7.99;79.31;98620.22;1732511;82;21186;-71
2021/01/22 12:24:23;;;;;;;38.53;23.18;;;;;;;7.83;79.58;98614.77;1733181;82;21385;-72
2021/01/22 12:26:53;;;;;;;40.08;28.00;;;;;;;7.78;80.26;98614.73;1733302;82;21111;-72
2021/01/22 12:29:25;;;;;;;35.80;22.40;;;;;;;7.76;81.16;98625.41;1733420;81;21151;-73
2021/01/22 12:32:06;;;;;;;34.45;23.70;;;;;;;7.80;80.29;98619.84;1844008;76;22764;-72
2021/01/22 12:34:39;;;;;;;35.17;22.73;;;;;;;8.01;80.20;98620.23;1855961;77;21026;-72
2021/01/22 12:37:22;;;;;;;39.48;24.60;;;;;;;8.21;80.03;98626.20;1787749;80;21436;-72